sensor_id;sensor_type;location;lat;lon;timestamp;temperature;humidity
11599;DHT22;5855;48.840;9.188;2024-02-21T00:01:38;6.90;99.90
11599;DHT22;5855;48.840;9.188;2024-02-21T00:04:05;6.90;99.90
11599;DHT22;5855;48.840;9.188;2024-02-21T00:06:32;6.90;99.90
11599;DHT22;5855;48.840;9.188;2024-02-21T00:08:59;6.90;99.90
11599;DHT22;5855;48.840;9.188;2024-02-21T00:11:26;7.00;99.90
11599;DHT22;5855;48.840;9.188;2024-02-21T00:13:53;6.90;99.90
11599;DHT22;5855;48.840;9.188;2024-02-21T00:16:24;7.00;99.90
11599;DHT22;5855;48.840;9.188;2024-02-21T00:18:51;7.00;99.90
11599;DHT22;5855;48.840;9.188;2024-02-21T00:21:17;7.00;99.90
11599;DHT22;5855;48.840;9.188;2024-02-21T00:23:44;7.00;99.90
11599;DHT22;5855;48.840;9.188;2024-02-21T00:26:14;7.10;99.90
11599;DHT22;5855;48.840;9.188;2024-02-21T00:28:41;7.10;99.90
11599;DHT22;5855;48.840;9.188;2024-02-21T00:31:08;7.10;99.90
11599;DHT22;5855;48.840;9.188;2024-02-21T00:33:39;7.10;99.90
11599;DHT22;5855;48.840;9.188;2024-02-21T00:36:06;7.10;99.90
11599;DHT22;5855;48.840;9.188;2024-02-21T00:38:33;7.10;99.90
11599;DHT22;5855;48.840;9.188;2024-02-21T00:41:01;7.20;99.90
11599;DHT22;5855;48.840;9.188;2024-02-21T00:43:28;7.20;99.90
11599;DHT22;5855;48.840;9.188;2024-02-21T00:45:55;7.30;99.90
11599;DHT22;5855;48.840;9.188;2024-02-21T00:48:22;7.20;99.90
11599;DHT22;5855;48.840;9.188;2024-02-21T00:50:50;7.30;99.90
11599;DHT22;5855;48.840;9.188;2024-02-21T00:53:17;7.30;99.90
11599;DHT22;5855;48.840;9.188;2024-02-21T00:55:44;7.40;99.90
11599;DHT22;5855;48.840;9.188;2024-02-21T00:58:11;7.30;99.90
11599;DHT22;5855;48.840;9.188;2024-02-21T01:00:37;7.30;99.90
11599;DHT22;5855;48.840;9.188;2024-02-21T01:03:04;7.30;99.90
11599;DHT22;5855;48.840;9.188;2024-02-21T01:05:31;7.40;99.90
11599;DHT22;5855;48.840;9.188;2024-02-21T01:07:59;7.30;99.90
11599;DHT22;5855;48.840;9.188;2024-02-21T01:10:26;7.40;99.90
11599;DHT22;5855;48.840;9.188;2024-02-21T01:12:56;7.40;99.90
11599;DHT22;5855;48.840;9.188;2024-02-21T01:15:23;7.30;99.90
11599;DHT22;5855;48.840;9.188;2024-02-21T01:17:50;7.30;99.90
11599;DHT22;5855;48.840;9.188;2024-02-21T01:20:20;7.30;99.90
11599;DHT22;5855;48.840;9.188;2024-02-21T01:22:47;7.20;99.90
11599;DHT22;5855;48.840;9.188;2024-02-21T01:25:15;7.30;99.90
11599;DHT22;5855;48.840;9.188;2024-02-21T01:27:42;7.20;99.90
11599;DHT22;5855;48.840;9.188;2024-02-21T01:30:10;7.20;99.90
11599;DHT22;5855;48.840;9.188;2024-02-21T01:32:37;7.30;99.90
11599;DHT22;5855;48.840;9.188;2024-02-21T01:35:04;7.30;99.90
11599;DHT22;5855;48.840;9.188;2024-02-21T01:37:31;7.30;99.90
11599;DHT22;5855;48.840;9.188;2024-02-21T01:39:58;7.30;99.90
11599;DHT22;5855;48.840;9.188;2024-02-21T01:42:26;7.30;99.90
11599;DHT22;5855;48.840;9.188;2024-02-21T01:44:56;7.40;99.90
11599;DHT22;5855;48.840;9.188;2024-02-21T01:47:23;7.30;99.90
11599;DHT22;5855;48.840;9.188;2024-02-21T01:49:50;7.30;99.90
11599;DHT22;5855;48.840;9.188;2024-02-21T01:52:17;7.40;99.90
11599;DHT22;5855;48.840;9.188;2024-02-21T01:54:44;7.40;99.90
11599;DHT22;5855;48.840;9.188;2024-02-21T01:57:13;7.40;99.90
11599;DHT22;5855;48.840;9.188;2024-02-21T01:59:42;7.30;99.90
11599;DHT22;5855;48.840;9.188;2024-02-21T02:02:09;7.30;99.90
11599;DHT22;5855;48.840;9.188;2024-02-21T02:04:38;7.30;99.90
11599;DHT22;5855;48.840;9.188;2024-02-21T02:07:07;7.40;99.90
11599;DHT22;5855;48.840;9.188;2024-02-21T02:09:34;7.30;99.90
11599;DHT22;5855;48.840;9.188;2024-02-21T02:12:02;7.30;99.90
11599;DHT22;5855;48.840;9.188;2024-02-21T02:14:31;7.30;99.90
11599;DHT22;5855;48.840;9.188;2024-02-21T02:17:00;7.40;99.90
11599;DHT22;5855;48.840;9.188;2024-02-21T02:19:27;7.40;99.90
11599;DHT22;5855;48.840;9.188;2024-02-21T02:22:01;7.30;99.90
11599;DHT22;5855;48.840;9.188;2024-02-21T02:24:33;7.30;99.90
11599;DHT22;5855;48.840;9.188;2024-02-21T02:27:00;7.30;99.90
11599;DHT22;5855;48.840;9.188;2024-02-21T02:29:27;7.30;99.90
11599;DHT22;5855;48.840;9.188;2024-02-21T02:31:54;7.30;99.90
11599;DHT22;5855;48.840;9.188;2024-02-21T02:34:20;7.40;99.90
11599;DHT22;5855;48.840;9.188;2024-02-21T02:36:47;7.30;99.90
11599;DHT22;5855;48.840;9.188;2024-02-21T02:39:15;7.30;99.90
11599;DHT22;5855;48.840;9.188;2024-02-21T02:41:44;7.40;99.90
11599;DHT22;5855;48.840;9.188;2024-02-21T02:44:11;7.40;99.90
11599;DHT22;5855;48.840;9.188;2024-02-21T02:46:40;7.40;99.90
11599;DHT22;5855;48.840;9.188;2024-02-21T02:49:07;7.40;99.90
11599;DHT22;5855;48.840;9.188;2024-02-21T02:51:34;7.40;99.90
11599;DHT22;5855;48.840;9.188;2024-02-21T02:54:01;7.40;99.90
11599;DHT22;5855;48.840;9.188;2024-02-21T02:56:31;7.40;99.90
11599;DHT22;5855;48.840;9.188;2024-02-21T02:58:59;7.50;99.90
11599;DHT22;5855;48.840;9.188;2024-02-21T03:01:26;7.50;99.90
11599;DHT22;5855;48.840;9.188;2024-02-21T03:03:53;7.50;99.90
11599;DHT22;5855;48.840;9.188;2024-02-21T03:06:20;7.40;99.90
11599;DHT22;5855;48.840;9.188;2024-02-21T03:08:47;7.30;99.90
11599;DHT22;5855;48.840;9.188;2024-02-21T03:11:14;7.20;99.90
11599;DHT22;5855;48.840;9.188;2024-02-21T03:13:41;7.20;99.90
11599;DHT22;5855;48.840;9.188;2024-02-21T03:16:09;7.10;99.90
11599;DHT22;5855;48.840;9.188;2024-02-21T03:18:36;7.00;99.90
11599;DHT22;5855;48.840;9.188;2024-02-21T03:21:03;7.00;99.90
11599;DHT22;5855;48.840;9.188;2024-02-21T03:23:30;7.00;99.90
11599;DHT22;5855;48.840;9.188;2024-02-21T03:25:57;7.00;99.90
11599;DHT22;5855;48.840;9.188;2024-02-21T03:28:24;7.10;99.90
11599;DHT22;5855;48.840;9.188;2024-02-21T03:30:51;7.00;99.90
11599;DHT22;5855;48.840;9.188;2024-02-21T03:33:19;7.00;99.90
11599;DHT22;5855;48.840;9.188;2024-02-21T03:35:48;7.00;99.90
11599;DHT22;5855;48.840;9.188;2024-02-21T03:38:16;6.90;99.90
11599;DHT22;5855;48.840;9.188;2024-02-21T03:40:43;6.90;99.90
11599;DHT22;5855;48.840;9.188;2024-02-21T03:43:10;6.90;99.90
11599;DHT22;5855;48.840;9.188;2024-02-21T03:45:37;6.80;99.90
11599;DHT22;5855;48.840;9.188;2024-02-21T03:48:05;6.80;99.90
11599;DHT22;5855;48.840;9.188;2024-02-21T03:50:33;6.80;99.90
11599;DHT22;5855;48.840;9.188;2024-02-21T03:53:00;6.80;99.90
11599;DHT22;5855;48.840;9.188;2024-02-21T03:55:27;6.80;99.90
11599;DHT22;5855;48.840;9.188;2024-02-21T03:57:54;6.90;99.90
11599;DHT22;5855;48.840;9.188;2024-02-21T04:00:21;6.90;99.90
11599;DHT22;5855;48.840;9.188;2024-02-21T04:02:49;6.80;99.90
11599;DHT22;5855;48.840;9.188;2024-02-21T04:05:18;6.80;99.90
11599;DHT22;5855;48.840;9.188;2024-02-21T04:07:50;6.80;99.90
11599;DHT22;5855;48.840;9.188;2024-02-21T04:10:17;6.80;99.90
11599;DHT22;5855;48.840;9.188;2024-02-21T04:12:46;6.80;99.90
11599;DHT22;5855;48.840;9.188;2024-02-21T04:15:15;6.80;99.90
11599;DHT22;5855;48.840;9.188;2024-02-21T04:17:42;6.80;99.90
11599;DHT22;5855;48.840;9.188;2024-02-21T04:20:15;6.80;99.90
11599;DHT22;5855;48.840;9.188;2024-02-21T04:22:43;6.80;99.90
11599;DHT22;5855;48.840;9.188;2024-02-21T04:25:11;6.80;99.90
11599;DHT22;5855;48.840;9.188;2024-02-21T04:27:39;6.70;99.90
11599;DHT22;5855;48.840;9.188;2024-02-21T04:30:07;6.70;99.90
11599;DHT22;5855;48.840;9.188;2024-02-21T04:32:35;6.60;99.90
11599;DHT22;5855;48.840;9.188;2024-02-21T04:35:02;6.60;99.90
11599;DHT22;5855;48.840;9.188;2024-02-21T04:37:28;6.50;99.90
11599;DHT22;5855;48.840;9.188;2024-02-21T04:39:56;6.50;99.90
11599;DHT22;5855;48.840;9.188;2024-02-21T04:42:24;6.60;99.90
11599;DHT22;5855;48.840;9.188;2024-02-21T04:44:50;6.60;99.90
11599;DHT22;5855;48.840;9.188;2024-02-21T04:47:17;6.50;99.90
11599;DHT22;5855;48.840;9.188;2024-02-21T04:49:45;6.50;99.90
11599;DHT22;5855;48.840;9.188;2024-02-21T04:52:12;6.50;99.90
11599;DHT22;5855;48.840;9.188;2024-02-21T04:54:40;6.50;99.90
11599;DHT22;5855;48.840;9.188;2024-02-21T04:57:07;6.40;99.90
11599;DHT22;5855;48.840;9.188;2024-02-21T04:59:37;6.40;99.90
11599;DHT22;5855;48.840;9.188;2024-02-21T05:02:06;6.30;99.90
11599;DHT22;5855;48.840;9.188;2024-02-21T05:04:32;6.30;99.90
11599;DHT22;5855;48.840;9.188;2024-02-21T05:07:00;6.20;99.90
11599;DHT22;5855;48.840;9.188;2024-02-21T05:09:30;6.20;99.90
11599;DHT22;5855;48.840;9.188;2024-02-21T05:11:57;6.10;99.90
11599;DHT22;5855;48.840;9.188;2024-02-21T05:14:25;6.00;99.90
11599;DHT22;5855;48.840;9.188;2024-02-21T05:16:54;6.00;99.90
11599;DHT22;5855;48.840;9.188;2024-02-21T05:19:21;5.90;99.90
11599;DHT22;5855;48.840;9.188;2024-02-21T05:21:48;5.90;99.90
11599;DHT22;5855;48.840;9.188;2024-02-21T05:24:15;5.80;99.90
11599;DHT22;5855;48.840;9.188;2024-02-21T05:26:42;5.80;99.90
11599;DHT22;5855;48.840;9.188;2024-02-21T05:29:09;5.70;99.90
11599;DHT22;5855;48.840;9.188;2024-02-21T05:31:56;5.70;99.90
11599;DHT22;5855;48.840;9.188;2024-02-21T05:34:23;5.60;99.90
11599;DHT22;5855;48.840;9.188;2024-02-21T05:36:51;5.60;99.90
11599;DHT22;5855;48.840;9.188;2024-02-21T05:39:18;5.60;99.90
11599;DHT22;5855;48.840;9.188;2024-02-21T05:41:45;5.70;99.90
11599;DHT22;5855;48.840;9.188;2024-02-21T05:44:18;5.70;99.90
11599;DHT22;5855;48.840;9.188;2024-02-21T05:46:48;5.70;99.90
11599;DHT22;5855;48.840;9.188;2024-02-21T05:49:16;5.70;99.90
11599;DHT22;5855;48.840;9.188;2024-02-21T05:51:52;5.70;99.90
11599;DHT22;5855;48.840;9.188;2024-02-21T05:54:19;5.80;99.90
11599;DHT22;5855;48.840;9.188;2024-02-21T05:56:46;5.80;99.90
11599;DHT22;5855;48.840;9.188;2024-02-21T05:59:13;5.80;99.90
11599;DHT22;5855;48.840;9.188;2024-02-21T06:01:40;5.80;99.90
11599;DHT22;5855;48.840;9.188;2024-02-21T06:04:07;5.80;99.90
11599;DHT22;5855;48.840;9.188;2024-02-21T06:06:35;5.80;99.90
11599;DHT22;5855;48.840;9.188;2024-02-21T06:09:04;5.80;99.90
11599;DHT22;5855;48.840;9.188;2024-02-21T06:11:34;5.70;99.90
11599;DHT22;5855;48.840;9.188;2024-02-21T06:14:05;5.70;99.90
11599;DHT22;5855;48.840;9.188;2024-02-21T06:16:42;5.90;99.90
11599;DHT22;5855;48.840;9.188;2024-02-21T06:19:09;6.00;99.90
11599;DHT22;5855;48.840;9.188;2024-02-21T06:21:38;6.10;99.90
11599;DHT22;5855;48.840;9.188;2024-02-21T06:24:08;6.10;99.90
11599;DHT22;5855;48.840;9.188;2024-02-21T06:26:43;6.00;99.90
11599;DHT22;5855;48.840;9.188;2024-02-21T06:29:11;5.90;99.90
11599;DHT22;5855;48.840;9.188;2024-02-21T06:31:39;5.90;99.90
11599;DHT22;5855;48.840;9.188;2024-02-21T06:34:06;5.90;99.90
11599;DHT22;5855;48.840;9.188;2024-02-21T06:36:33;5.80;99.90
11599;DHT22;5855;48.840;9.188;2024-02-21T06:39:00;5.80;99.90
11599;DHT22;5855;48.840;9.188;2024-02-21T06:41:27;5.80;99.90
11599;DHT22;5855;48.840;9.188;2024-02-21T06:43:59;5.80;99.90
11599;DHT22;5855;48.840;9.188;2024-02-21T06:46:27;5.80;99.90
11599;DHT22;5855;48.840;9.188;2024-02-21T06:48:57;5.80;99.90
11599;DHT22;5855;48.840;9.188;2024-02-21T06:51:25;5.80;99.90
11599;DHT22;5855;48.840;9.188;2024-02-21T06:53:52;5.70;99.90
11599;DHT22;5855;48.840;9.188;2024-02-21T06:56:19;5.70;99.90
11599;DHT22;5855;48.840;9.188;2024-02-21T06:58:46;5.80;99.90
11599;DHT22;5855;48.840;9.188;2024-02-21T07:01:15;5.80;99.90
11599;DHT22;5855;48.840;9.188;2024-02-21T07:03:41;5.80;99.90
11599;DHT22;5855;48.840;9.188;2024-02-21T07:06:08;5.90;99.90
11599;DHT22;5855;48.840;9.188;2024-02-21T07:08:36;5.90;99.90
11599;DHT22;5855;48.840;9.188;2024-02-21T07:11:03;6.00;99.90
11599;DHT22;5855;48.840;9.188;2024-02-21T07:13:30;6.20;99.90
11599;DHT22;5855;48.840;9.188;2024-02-21T07:15:57;6.30;99.90
11599;DHT22;5855;48.840;9.188;2024-02-21T07:18:26;6.30;99.90
11599;DHT22;5855;48.840;9.188;2024-02-21T07:21:10;6.50;99.90
11599;DHT22;5855;48.840;9.188;2024-02-21T07:23:40;6.50;99.90
11599;DHT22;5855;48.840;9.188;2024-02-21T07:26:07;6.60;99.90
11599;DHT22;5855;48.840;9.188;2024-02-21T07:28:37;6.70;99.90
11599;DHT22;5855;48.840;9.188;2024-02-21T07:31:06;6.80;99.90
11599;DHT22;5855;48.840;9.188;2024-02-21T07:33:35;6.90;99.90
11599;DHT22;5855;48.840;9.188;2024-02-21T07:36:06;7.10;99.90
11599;DHT22;5855;48.840;9.188;2024-02-21T07:38:33;7.10;99.90
11599;DHT22;5855;48.840;9.188;2024-02-21T07:40:59;7.20;99.90
11599;DHT22;5855;48.840;9.188;2024-02-21T07:43:29;7.30;99.90
11599;DHT22;5855;48.840;9.188;2024-02-21T07:45:58;7.40;99.90
11599;DHT22;5855;48.840;9.188;2024-02-21T07:48:25;7.50;99.90
11599;DHT22;5855;48.840;9.188;2024-02-21T07:50:53;7.60;99.90
11599;DHT22;5855;48.840;9.188;2024-02-21T07:53:20;7.70;99.90
11599;DHT22;5855;48.840;9.188;2024-02-21T07:55:47;7.80;99.90
11599;DHT22;5855;48.840;9.188;2024-02-21T07:58:14;7.90;99.90
11599;DHT22;5855;48.840;9.188;2024-02-21T08:00:41;8.00;99.90
11599;DHT22;5855;48.840;9.188;2024-02-21T08:03:08;8.20;99.90
11599;DHT22;5855;48.840;9.188;2024-02-21T08:05:36;8.30;99.90
11599;DHT22;5855;48.840;9.188;2024-02-21T08:08:05;8.50;99.90
11599;DHT22;5855;48.840;9.188;2024-02-21T08:10:32;8.60;99.90
11599;DHT22;5855;48.840;9.188;2024-02-21T08:12:59;8.70;99.90
11599;DHT22;5855;48.840;9.188;2024-02-21T08:15:26;8.80;99.90
11599;DHT22;5855;48.840;9.188;2024-02-21T08:17:55;8.90;99.90
11599;DHT22;5855;48.840;9.188;2024-02-21T08:20:25;9.00;99.90
11599;DHT22;5855;48.840;9.188;2024-02-21T08:22:53;9.10;99.90
11599;DHT22;5855;48.840;9.188;2024-02-21T08:25:22;9.20;99.90
11599;DHT22;5855;48.840;9.188;2024-02-21T08:27:49;9.30;99.90
11599;DHT22;5855;48.840;9.188;2024-02-21T08:30:17;9.40;99.90
11599;DHT22;5855;48.840;9.188;2024-02-21T08:32:44;9.50;99.90
11599;DHT22;5855;48.840;9.188;2024-02-21T08:35:11;9.60;99.90
11599;DHT22;5855;48.840;9.188;2024-02-21T08:37:38;9.70;99.90
11599;DHT22;5855;48.840;9.188;2024-02-21T08:40:06;9.80;99.90
11599;DHT22;5855;48.840;9.188;2024-02-21T08:42:36;9.80;99.90
11599;DHT22;5855;48.840;9.188;2024-02-21T08:45:06;9.70;99.90
11599;DHT22;5855;48.840;9.188;2024-02-21T08:47:33;9.70;99.90
11599;DHT22;5855;48.840;9.188;2024-02-21T08:50:01;9.80;99.90
11599;DHT22;5855;48.840;9.188;2024-02-21T08:52:31;9.80;99.90
11599;DHT22;5855;48.840;9.188;2024-02-21T08:54:58;9.80;99.90
11599;DHT22;5855;48.840;9.188;2024-02-21T08:57:26;9.80;99.90
11599;DHT22;5855;48.840;9.188;2024-02-21T09:00:03;9.80;99.90
11599;DHT22;5855;48.840;9.188;2024-02-21T09:02:35;9.80;99.90
11599;DHT22;5855;48.840;9.188;2024-02-21T09:05:03;9.90;99.90
11599;DHT22;5855;48.840;9.188;2024-02-21T09:07:31;10.00;99.90
11599;DHT22;5855;48.840;9.188;2024-02-21T09:10:00;10.00;99.90
11599;DHT22;5855;48.840;9.188;2024-02-21T09:12:32;10.20;99.90
11599;DHT22;5855;48.840;9.188;2024-02-21T09:14:59;10.20;99.90
11599;DHT22;5855;48.840;9.188;2024-02-21T09:17:27;10.30;99.90
11599;DHT22;5855;48.840;9.188;2024-02-21T09:19:55;10.30;99.90
11599;DHT22;5855;48.840;9.188;2024-02-21T09:22:24;10.30;99.90
11599;DHT22;5855;48.840;9.188;2024-02-21T09:24:51;10.40;99.90
11599;DHT22;5855;48.840;9.188;2024-02-21T09:27:18;10.50;99.90
11599;DHT22;5855;48.840;9.188;2024-02-21T09:29:47;10.50;99.90
11599;DHT22;5855;48.840;9.188;2024-02-21T09:32:14;10.60;99.90
11599;DHT22;5855;48.840;9.188;2024-02-21T09:34:42;10.70;99.90
11599;DHT22;5855;48.840;9.188;2024-02-21T09:37:11;10.70;99.90
11599;DHT22;5855;48.840;9.188;2024-02-21T09:39:37;10.90;99.90
11599;DHT22;5855;48.840;9.188;2024-02-21T09:42:06;11.10;99.90
11599;DHT22;5855;48.840;9.188;2024-02-21T09:44:36;11.10;99.90
11599;DHT22;5855;48.840;9.188;2024-02-21T09:47:07;11.30;99.90
11599;DHT22;5855;48.840;9.188;2024-02-21T09:49:37;11.40;99.90
11599;DHT22;5855;48.840;9.188;2024-02-21T09:52:07;11.40;99.90
11599;DHT22;5855;48.840;9.188;2024-02-21T09:54:35;11.60;99.90
11599;DHT22;5855;48.840;9.188;2024-02-21T09:57:03;11.60;99.90
11599;DHT22;5855;48.840;9.188;2024-02-21T09:59:31;11.80;99.90
11599;DHT22;5855;48.840;9.188;2024-02-21T10:02:01;12.00;99.90
11599;DHT22;5855;48.840;9.188;2024-02-21T10:04:28;12.00;99.90
11599;DHT22;5855;48.840;9.188;2024-02-21T10:06:55;12.00;99.90
11599;DHT22;5855;48.840;9.188;2024-02-21T10:09:25;12.20;99.90
11599;DHT22;5855;48.840;9.188;2024-02-21T10:11:53;12.40;99.90
11599;DHT22;5855;48.840;9.188;2024-02-21T10:14:20;12.50;99.90
11599;DHT22;5855;48.840;9.188;2024-02-21T10:16:48;12.80;99.90
11599;DHT22;5855;48.840;9.188;2024-02-21T10:19:18;13.00;99.90
11599;DHT22;5855;48.840;9.188;2024-02-21T10:21:59;13.30;99.90
11599;DHT22;5855;48.840;9.188;2024-02-21T10:24:28;13.20;99.90
11599;DHT22;5855;48.840;9.188;2024-02-21T10:27:02;13.30;99.90
11599;DHT22;5855;48.840;9.188;2024-02-21T10:29:29;13.40;99.90
11599;DHT22;5855;48.840;9.188;2024-02-21T10:32:06;13.70;99.90
11599;DHT22;5855;48.840;9.188;2024-02-21T10:34:37;13.70;99.90
11599;DHT22;5855;48.840;9.188;2024-02-21T10:37:05;13.80;99.70
11599;DHT22;5855;48.840;9.188;2024-02-21T10:39:37;13.90;99.70
11599;DHT22;5855;48.840;9.188;2024-02-21T10:42:04;14.10;99.00
11599;DHT22;5855;48.840;9.188;2024-02-21T10:44:33;14.30;98.20
11599;DHT22;5855;48.840;9.188;2024-02-21T10:47:07;14.20;98.20
11599;DHT22;5855;48.840;9.188;2024-02-21T10:49:38;14.30;97.90
11599;DHT22;5855;48.840;9.188;2024-02-21T10:52:10;14.40;97.20
11599;DHT22;5855;48.840;9.188;2024-02-21T10:54:44;14.40;97.60
11599;DHT22;5855;48.840;9.188;2024-02-21T10:57:13;14.10;97.60
11599;DHT22;5855;48.840;9.188;2024-02-21T10:59:40;14.10;97.50
11599;DHT22;5855;48.840;9.188;2024-02-21T11:02:07;14.00;98.10
11599;DHT22;5855;48.840;9.188;2024-02-21T11:04:35;14.10;97.30
11599;DHT22;5855;48.840;9.188;2024-02-21T11:07:03;14.30;96.60
11599;DHT22;5855;48.840;9.188;2024-02-21T11:09:31;14.20;96.70
11599;DHT22;5855;48.840;9.188;2024-02-21T11:12:03;14.00;97.10
11599;DHT22;5855;48.840;9.188;2024-02-21T11:14:30;14.10;96.90
11599;DHT22;5855;48.840;9.188;2024-02-21T11:17:01;14.10;97.00
11599;DHT22;5855;48.840;9.188;2024-02-21T11:19:32;14.50;96.90
11599;DHT22;5855;48.840;9.188;2024-02-21T11:21:59;14.60;96.30
11599;DHT22;5855;48.840;9.188;2024-02-21T11:24:28;14.50;95.70
11599;DHT22;5855;48.840;9.188;2024-02-21T11:26:55;14.60;95.80
11599;DHT22;5855;48.840;9.188;2024-02-21T11:29:30;14.80;94.90
11599;DHT22;5855;48.840;9.188;2024-02-21T11:31:57;15.10;95.40
11599;DHT22;5855;48.840;9.188;2024-02-21T11:34:24;15.60;95.40
11599;DHT22;5855;48.840;9.188;2024-02-21T11:36:52;16.10;92.90
11599;DHT22;5855;48.840;9.188;2024-02-21T11:39:20;15.90;92.10
11599;DHT22;5855;48.840;9.188;2024-02-21T11:42:02;15.80;92.10
11599;DHT22;5855;48.840;9.188;2024-02-21T11:44:31;16.00;90.40
11599;DHT22;5855;48.840;9.188;2024-02-21T11:46:58;15.80;89.30
11599;DHT22;5855;48.840;9.188;2024-02-21T11:49:25;15.80;87.00
11599;DHT22;5855;48.840;9.188;2024-02-21T11:51:58;15.90;87.80
11599;DHT22;5855;48.840;9.188;2024-02-21T11:54:29;16.00;86.70
11599;DHT22;5855;48.840;9.188;2024-02-21T11:56:56;15.50;86.50
11599;DHT22;5855;48.840;9.188;2024-02-21T11:59:23;15.30;85.70
11599;DHT22;5855;48.840;9.188;2024-02-21T12:01:53;15.10;86.40
11599;DHT22;5855;48.840;9.188;2024-02-21T12:04:20;15.20;86.80
11599;DHT22;5855;48.840;9.188;2024-02-21T12:06:49;15.40;86.20
11599;DHT22;5855;48.840;9.188;2024-02-21T12:09:16;15.60;87.50
11599;DHT22;5855;48.840;9.188;2024-02-21T12:11:44;15.80;85.90
11599;DHT22;5855;48.840;9.188;2024-02-21T12:14:16;15.90;87.80
11599;DHT22;5855;48.840;9.188;2024-02-21T12:16:46;15.80;89.60
11599;DHT22;5855;48.840;9.188;2024-02-21T12:19:15;16.00;89.50
11599;DHT22;5855;48.840;9.188;2024-02-21T12:21:43;16.20;87.90
11599;DHT22;5855;48.840;9.188;2024-02-21T12:24:20;16.40;87.10
11599;DHT22;5855;48.840;9.188;2024-02-21T12:26:47;16.70;88.00
11599;DHT22;5855;48.840;9.188;2024-02-21T12:29:14;16.90;85.30
11599;DHT22;5855;48.840;9.188;2024-02-21T12:31:41;17.10;85.30
11599;DHT22;5855;48.840;9.188;2024-02-21T12:34:08;17.00;82.30
11599;DHT22;5855;48.840;9.188;2024-02-21T12:36:41;17.30;82.80
11599;DHT22;5855;48.840;9.188;2024-02-21T12:39:08;17.60;81.90
11599;DHT22;5855;48.840;9.188;2024-02-21T12:41:39;17.80;80.10
11599;DHT22;5855;48.840;9.188;2024-02-21T12:44:06;18.00;78.30
11599;DHT22;5855;48.840;9.188;2024-02-21T12:46:33;17.90;76.30
11599;DHT22;5855;48.840;9.188;2024-02-21T12:49:04;18.20;74.40
11599;DHT22;5855;48.840;9.188;2024-02-21T12:51:31;18.30;73.70
11599;DHT22;5855;48.840;9.188;2024-02-21T12:53:59;18.30;73.80
11599;DHT22;5855;48.840;9.188;2024-02-21T12:56:27;18.50;73.20
11599;DHT22;5855;48.840;9.188;2024-02-21T12:58:55;18.50;73.10
11599;DHT22;5855;48.840;9.188;2024-02-21T13:01:22;18.70;68.60
11599;DHT22;5855;48.840;9.188;2024-02-21T13:03:49;18.70;67.80
11599;DHT22;5855;48.840;9.188;2024-02-21T13:06:16;18.40;64.20
11599;DHT22;5855;48.840;9.188;2024-02-21T13:08:44;18.10;63.90
11599;DHT22;5855;48.840;9.188;2024-02-21T13:11:13;17.50;64.60
11599;DHT22;5855;48.840;9.188;2024-02-21T13:13:40;17.20;64.70
11599;DHT22;5855;48.840;9.188;2024-02-21T13:16:07;17.00;65.80
11599;DHT22;5855;48.840;9.188;2024-02-21T13:18:35;17.40;64.20
11599;DHT22;5855;48.840;9.188;2024-02-21T13:21:04;17.70;64.80
11599;DHT22;5855;48.840;9.188;2024-02-21T13:23:30;17.40;63.90
11599;DHT22;5855;48.840;9.188;2024-02-21T13:25:58;17.50;62.90
11599;DHT22;5855;48.840;9.188;2024-02-21T13:28:27;17.40;62.30
11599;DHT22;5855;48.840;9.188;2024-02-21T13:30:56;16.90;62.80
11599;DHT22;5855;48.840;9.188;2024-02-21T13:33:26;17.00;62.30
11599;DHT22;5855;48.840;9.188;2024-02-21T13:35:54;16.80;62.30
11599;DHT22;5855;48.840;9.188;2024-02-21T13:38:29;16.50;62.30
11599;DHT22;5855;48.840;9.188;2024-02-21T13:40:56;16.00;63.60
11599;DHT22;5855;48.840;9.188;2024-02-21T13:43:23;16.20;64.70
11599;DHT22;5855;48.840;9.188;2024-02-21T13:45:59;16.20;65.60
11599;DHT22;5855;48.840;9.188;2024-02-21T13:48:28;16.10;66.10
11599;DHT22;5855;48.840;9.188;2024-02-21T13:50:55;16.10;64.60
11599;DHT22;5855;48.840;9.188;2024-02-21T13:53:28;15.80;63.50
11599;DHT22;5855;48.840;9.188;2024-02-21T13:55:55;15.40;62.60
11599;DHT22;5855;48.840;9.188;2024-02-21T13:58:22;15.30;63.70
11599;DHT22;5855;48.840;9.188;2024-02-21T14:00:53;15.10;64.50
11599;DHT22;5855;48.840;9.188;2024-02-21T14:03:22;15.00;65.80
11599;DHT22;5855;48.840;9.188;2024-02-21T14:05:51;15.00;65.50
11599;DHT22;5855;48.840;9.188;2024-02-21T14:08:18;15.00;66.10
11599;DHT22;5855;48.840;9.188;2024-02-21T14:10:51;15.00;66.60
11599;DHT22;5855;48.840;9.188;2024-02-21T14:13:18;15.20;66.10
11599;DHT22;5855;48.840;9.188;2024-02-21T14:15:46;15.00;64.00
11599;DHT22;5855;48.840;9.188;2024-02-21T14:18:23;15.10;63.50
11599;DHT22;5855;48.840;9.188;2024-02-21T14:20:50;14.90;64.40
11599;DHT22;5855;48.840;9.188;2024-02-21T14:23:18;14.90;63.40
11599;DHT22;5855;48.840;9.188;2024-02-21T14:25:46;14.80;65.00
11599;DHT22;5855;48.840;9.188;2024-02-21T14:28:17;14.70;65.50
11599;DHT22;5855;48.840;9.188;2024-02-21T14:30:44;14.60;67.10
11599;DHT22;5855;48.840;9.188;2024-02-21T14:33:16;14.50;66.70
11599;DHT22;5855;48.840;9.188;2024-02-21T14:35:43;14.50;68.40
11599;DHT22;5855;48.840;9.188;2024-02-21T14:38:10;14.40;65.80
11599;DHT22;5855;48.840;9.188;2024-02-21T14:40:44;14.50;66.70
11599;DHT22;5855;48.840;9.188;2024-02-21T14:43:11;14.60;66.80
11599;DHT22;5855;48.840;9.188;2024-02-21T14:45:38;14.60;65.50
11599;DHT22;5855;48.840;9.188;2024-02-21T14:48:19;14.60;65.00
11599;DHT22;5855;48.840;9.188;2024-02-21T14:50:49;14.70;64.00
11599;DHT22;5855;48.840;9.188;2024-02-21T14:53:18;14.70;64.30
11599;DHT22;5855;48.840;9.188;2024-02-21T14:55:45;14.70;63.10
11599;DHT22;5855;48.840;9.188;2024-02-21T14:58:12;14.60;62.10
11599;DHT22;5855;48.840;9.188;2024-02-21T15:00:43;14.60;62.40
11599;DHT22;5855;48.840;9.188;2024-02-21T15:03:10;14.40;61.30
11599;DHT22;5855;48.840;9.188;2024-02-21T15:08:34;14.30;59.80
11599;DHT22;5855;48.840;9.188;2024-02-21T15:11:01;14.20;60.00
11599;DHT22;5855;48.840;9.188;2024-02-21T15:13:37;14.10;59.70
11599;DHT22;5855;48.840;9.188;2024-02-21T15:16:04;14.00;59.30
11599;DHT22;5855;48.840;9.188;2024-02-21T15:18:31;14.00;60.20
11599;DHT22;5855;48.840;9.188;2024-02-21T15:21:00;14.00;59.60
11599;DHT22;5855;48.840;9.188;2024-02-21T15:23:27;13.90;59.10
11599;DHT22;5855;48.840;9.188;2024-02-21T15:25:54;13.90;58.40
11599;DHT22;5855;48.840;9.188;2024-02-21T15:28:21;13.90;58.40
11599;DHT22;5855;48.840;9.188;2024-02-21T15:30:52;13.80;57.60
11599;DHT22;5855;48.840;9.188;2024-02-21T15:33:28;13.80;56.50
11599;DHT22;5855;48.840;9.188;2024-02-21T15:35:59;13.80;57.50
11599;DHT22;5855;48.840;9.188;2024-02-21T15:38:27;13.80;56.50
11599;DHT22;5855;48.840;9.188;2024-02-21T15:40:58;13.80;56.70
11599;DHT22;5855;48.840;9.188;2024-02-21T15:43:25;13.80;57.60
11599;DHT22;5855;48.840;9.188;2024-02-21T15:45:59;13.70;57.90
11599;DHT22;5855;48.840;9.188;2024-02-21T15:48:36;13.70;57.30
11599;DHT22;5855;48.840;9.188;2024-02-21T15:51:06;13.80;57.90
11599;DHT22;5855;48.840;9.188;2024-02-21T15:53:34;13.90;57.60
11599;DHT22;5855;48.840;9.188;2024-02-21T15:56:01;13.70;57.20
11599;DHT22;5855;48.840;9.188;2024-02-21T15:58:31;13.50;57.90
11599;DHT22;5855;48.840;9.188;2024-02-21T16:00:58;13.60;57.50
11599;DHT22;5855;48.840;9.188;2024-02-21T16:03:28;13.50;57.50
11599;DHT22;5855;48.840;9.188;2024-02-21T16:05:58;13.60;57.50